createdAt,value
2019-03-09T00:00:36.442Z,0.40
2019-03-09T00:03:06.381Z,0.63
2019-03-09T00:05:36.289Z,0.40
2019-03-09T00:08:06.541Z,0.70
2019-03-09T00:10:36.465Z,0.50
2019-03-09T00:13:06.333Z,0.53
2019-03-09T00:15:37.725Z,0.60
2019-03-09T00:18:08.057Z,0.50
2019-03-09T00:20:41.133Z,0.50
2019-03-09T00:23:24.784Z,0.50
2019-03-09T00:26:12.093Z,0.50
2019-03-09T00:28:49.683Z,0.37
2019-03-09T00:31:33.668Z,0.30
2019-03-09T00:34:04.177Z,0.50
2019-03-09T00:36:34.673Z,0.40
2019-03-09T00:39:05.871Z,0.50
2019-03-09T00:41:35.709Z,0.53
2019-03-09T00:44:07.389Z,0.60
2019-03-09T00:46:37.861Z,0.60
2019-03-09T00:49:08.169Z,0.50
2019-03-09T00:51:38.157Z,0.50
2019-03-09T00:54:08.098Z,0.50
2019-03-09T00:56:38.177Z,0.50
2019-03-09T00:59:08.045Z,0.60
2019-03-09T01:01:37.362Z,0.60
2019-03-09T01:04:07.737Z,0.40
2019-03-09T01:06:38.112Z,0.50
2019-03-09T01:09:08.580Z,0.60
2019-03-09T01:11:38.516Z,0.60
2019-03-09T01:14:08.629Z,0.60
2019-03-09T01:16:38.539Z,1.00
2019-03-09T01:19:08.331Z,0.80
2019-03-09T01:21:38.445Z,0.50
2019-03-09T01:24:08.136Z,0.40
2019-03-09T01:26:37.737Z,0.50
2019-03-09T01:29:08.786Z,0.60
2019-03-09T01:31:38.841Z,0.70
2019-03-09T01:34:08.793Z,0.40
2019-03-09T01:36:38.773Z,0.40
2019-03-09T01:39:09.662Z,0.40
2019-03-09T01:41:40.896Z,0.60
2019-03-09T01:44:10.778Z,0.50
2019-03-09T01:46:41.290Z,0.40
2019-03-09T01:49:11.209Z,0.50
2019-03-09T01:51:41.192Z,0.40
2019-03-09T01:54:10.968Z,0.50
2019-03-09T01:56:40.691Z,0.60
2019-03-09T01:59:10.701Z,0.60
2019-03-09T02:01:41.202Z,0.50
2019-03-09T02:04:12.500Z,0.73
2019-03-09T02:06:45.977Z,0.50
2019-03-09T02:09:16.409Z,0.60
2019-03-09T02:11:49.241Z,0.63
2019-03-09T02:14:20.369Z,0.83
2019-03-09T02:16:50.364Z,0.60
2019-03-09T02:19:21.727Z,0.40
2019-03-09T02:21:51.737Z,0.50
2019-03-09T02:24:21.988Z,0.50
2019-03-09T02:26:52.437Z,0.57
2019-03-09T02:29:23.573Z,0.70
2019-03-09T02:31:54.097Z,0.43
2019-03-09T02:34:24.984Z,0.63
2019-03-09T02:36:55.413Z,0.40
2019-03-09T02:39:35.905Z,0.70
2019-03-09T02:42:05.534Z,0.60
2019-03-09T02:44:35.998Z,0.60
2019-03-09T02:47:05.822Z,0.40
2019-03-09T02:49:35.773Z,0.40
2019-03-09T02:52:06.262Z,0.60
2019-03-09T02:54:36.693Z,0.50
2019-03-09T02:57:06.634Z,0.30
2019-03-09T02:59:37.754Z,0.40
2019-03-09T03:02:26.757Z,0.80
2019-03-09T03:04:56.547Z,0.40
2019-03-09T03:07:27.255Z,0.50
2019-03-09T03:09:57.132Z,0.70
2019-03-09T03:12:27.147Z,0.50
2019-03-09T03:14:56.806Z,0.50
2019-03-09T03:17:27.644Z,0.60
2019-03-09T03:19:58.168Z,0.50
2019-03-09T03:22:28.726Z,0.40
2019-03-09T03:24:59.711Z,0.50
2019-03-09T03:27:29.603Z,0.40
2019-03-09T03:29:59.238Z,0.50
2019-03-09T03:32:32.866Z,0.40
2019-03-09T03:35:03.236Z,0.47
2019-03-09T03:37:33.704Z,0.60
2019-03-09T03:40:03.820Z,0.90
2019-03-09T03:42:33.956Z,0.53
2019-03-09T03:45:03.813Z,0.60
2019-03-09T03:47:33.477Z,0.60
2019-03-09T03:50:03.878Z,0.60
2019-03-09T03:52:34.200Z,0.50
2019-03-09T03:55:03.861Z,0.60
2019-03-09T03:57:33.709Z,0.53
2019-03-09T04:00:04.026Z,0.57
2019-03-09T04:02:34.507Z,0.60
2019-03-09T04:05:04.173Z,0.50
2019-03-09T04:07:34.780Z,0.50
2019-03-09T04:10:05.421Z,0.60
2019-03-09T04:12:36.033Z,0.50
2019-03-09T04:15:06.661Z,0.57
2019-03-09T04:17:37.081Z,0.50
2019-03-09T04:20:07.336Z,0.50
2019-03-09T04:22:37.056Z,0.60
2019-03-09T04:25:07.523Z,0.60
2019-03-09T04:27:38.293Z,0.40
2019-03-09T04:30:08.166Z,0.40
2019-03-09T04:32:38.681Z,0.60
2019-03-09T04:35:09.655Z,0.43
2019-03-09T04:37:40.506Z,0.40
2019-03-09T04:40:12.416Z,0.50
2019-03-09T04:42:44.860Z,0.50
2019-03-09T04:45:14.668Z,0.60
2019-03-09T04:47:45.048Z,0.70
2019-03-09T04:50:14.949Z,0.60
2019-03-09T04:52:45.354Z,0.70
2019-03-09T04:55:15.005Z,0.40
2019-03-09T04:57:45.420Z,0.80
2019-03-09T05:00:15.465Z,0.50
2019-03-09T05:02:45.922Z,0.43
2019-03-09T05:05:16.953Z,0.60
2019-03-09T05:07:51.732Z,0.50
2019-03-09T05:10:23.993Z,0.57
2019-03-09T05:12:54.921Z,0.57
2019-03-09T05:15:24.653Z,0.70
2019-03-09T05:17:54.610Z,0.50
2019-03-09T05:20:25.128Z,0.70
2019-03-09T05:22:55.601Z,0.40
2019-03-09T05:25:26.461Z,0.50
2019-03-09T05:27:56.853Z,0.53
2019-03-09T05:30:39.833Z,0.50
2019-03-09T05:33:09.612Z,0.70
2019-03-09T05:35:40.253Z,0.60
2019-03-09T05:38:10.422Z,0.60
2019-03-09T05:40:40.345Z,0.67
2019-03-09T05:43:10.586Z,0.80
2019-03-09T05:45:40.450Z,0.43
2019-03-09T05:48:10.629Z,0.60
2019-03-09T05:50:40.620Z,0.67
2019-03-09T05:53:14.968Z,0.50
2019-03-09T05:55:45.468Z,0.70
2019-03-09T05:58:15.070Z,0.80
2019-03-09T06:00:45.433Z,0.90
2019-03-09T06:03:15.705Z,0.90
2019-03-09T06:05:50.391Z,0.60
2019-03-09T06:08:20.144Z,0.80
2019-03-09T06:10:51.641Z,0.87
2019-03-09T06:13:21.412Z,0.97
2019-03-09T06:15:51.251Z,0.87
2019-03-09T06:18:22.261Z,0.60
2019-03-09T06:20:52.128Z,0.90
2019-03-09T06:23:22.688Z,1.03
2019-03-09T06:25:52.989Z,1.13
2019-03-09T06:28:23.489Z,0.93
2019-03-09T06:30:53.269Z,0.90
2019-03-09T06:33:27.327Z,0.83
2019-03-09T06:36:06.197Z,0.90
2019-03-09T06:38:54.973Z,0.90
2019-03-09T06:41:32.165Z,0.90
2019-03-09T06:44:03.097Z,1.00
2019-03-09T06:46:34.867Z,1.00
2019-03-09T06:49:04.580Z,0.73
2019-03-09T06:51:34.873Z,1.03
2019-03-09T06:54:05.220Z,0.83
2019-03-09T06:56:35.938Z,1.17
2019-03-09T06:59:06.277Z,0.77
2019-03-09T07:01:37.715Z,1.37
2019-03-09T07:04:07.648Z,1.33
2019-03-09T07:06:38.074Z,1.27
2019-03-09T07:09:08.205Z,0.90
2019-03-09T07:11:38.618Z,1.10
2019-03-09T07:14:25.812Z,1.10
2019-03-09T07:16:56.730Z,1.00
2019-03-09T07:19:27.089Z,1.00
2019-03-09T07:21:56.773Z,1.20
2019-03-09T07:24:27.157Z,1.23
2019-03-09T07:26:57.189Z,1.30
2019-03-09T07:29:27.133Z,1.37
2019-03-09T07:31:58.110Z,0.90
2019-03-09T07:34:28.121Z,1.00
2019-03-09T07:36:58.605Z,1.20
2019-03-09T07:39:28.560Z,1.20
2019-03-09T07:41:59.034Z,1.40
2019-03-09T07:44:31.603Z,1.30
2019-03-09T07:47:02.104Z,1.30
2019-03-09T07:49:32.597Z,1.77
2019-03-09T07:52:04.408Z,1.07
2019-03-09T07:54:34.785Z,1.10
2019-03-09T07:57:05.753Z,1.20
2019-03-09T07:59:36.181Z,1.20
2019-03-09T08:02:06.857Z,1.20
2019-03-09T08:04:37.333Z,1.13
2019-03-09T08:07:08.625Z,1.00
2019-03-09T08:09:39.037Z,1.20
2019-03-09T08:12:10.193Z,1.37
2019-03-09T08:14:40.097Z,1.00
2019-03-09T08:17:10.441Z,0.93
2019-03-09T08:19:40.795Z,1.10
2019-03-09T08:22:10.709Z,0.97
2019-03-09T08:24:42.595Z,0.73
2019-03-09T08:27:12.557Z,1.07
2019-03-09T08:29:44.146Z,1.00
2019-03-09T08:32:14.650Z,0.90
2019-03-09T08:34:45.253Z,1.03
2019-03-09T08:37:15.054Z,1.30
2019-03-09T08:39:45.476Z,0.93
2019-03-09T08:42:15.964Z,1.73
2019-03-09T08:44:46.719Z,1.10
2019-03-09T08:47:17.344Z,1.07
2019-03-09T08:49:47.416Z,1.53
2019-03-09T08:52:17.566Z,1.40
2019-03-09T08:54:47.731Z,0.93
2019-03-09T08:57:17.957Z,1.20
2019-03-09T08:59:47.769Z,1.40
2019-03-09T09:02:18.218Z,1.03
2019-03-09T09:04:49.049Z,1.10
2019-03-09T09:07:18.910Z,1.00
2019-03-09T09:09:48.869Z,1.27
2019-03-09T09:12:19.206Z,1.10
2019-03-09T09:14:49.190Z,1.50
2019-03-09T09:17:19.113Z,0.97
2019-03-09T09:19:51.721Z,0.97
2019-03-09T09:22:22.974Z,1.00
2019-03-09T09:24:55.128Z,1.20
2019-03-09T09:27:24.985Z,0.80
2019-03-09T09:29:55.338Z,0.90
2019-03-09T09:32:25.705Z,0.90
2019-03-09T09:34:55.809Z,1.10
2019-03-09T09:37:26.318Z,0.73
2019-03-09T09:39:56.232Z,0.80
2019-03-09T09:42:26.374Z,0.80
2019-03-09T09:44:56.923Z,0.80
2019-03-09T09:47:26.817Z,0.90
2019-03-09T09:49:56.475Z,1.30
2019-03-09T09:52:26.953Z,0.50
2019-03-09T09:54:56.793Z,1.10
2019-03-09T09:57:26.517Z,1.27
2019-03-09T09:59:58.142Z,1.30
2019-03-09T10:02:28.013Z,0.90
2019-03-09T10:04:58.033Z,0.83
2019-03-09T10:07:27.801Z,0.77
2019-03-09T10:09:59.136Z,0.80
2019-03-09T10:12:29.029Z,0.90
2019-03-09T10:14:59.355Z,0.90
2019-03-09T10:17:29.434Z,1.13
2019-03-09T10:20:00.327Z,0.80
2019-03-09T10:22:29.815Z,1.17
2019-03-09T10:25:00.497Z,1.60
2019-03-09T10:27:30.438Z,2.30
2019-03-09T10:30:00.793Z,1.40
2019-03-09T10:32:31.213Z,1.50
2019-03-09T10:35:01.399Z,2.00
2019-03-09T10:37:34.140Z,1.40
2019-03-09T10:40:04.133Z,5.30
2019-03-09T10:42:33.933Z,2.20
2019-03-09T10:45:03.886Z,2.07
2019-03-09T10:47:36.881Z,2.17
2019-03-09T10:50:07.681Z,2.17
2019-03-09T10:52:37.651Z,1.73
2019-03-09T10:55:09.151Z,1.87
2019-03-09T10:57:38.912Z,1.47
2019-03-09T11:00:19.365Z,2.17
2019-03-09T11:02:49.186Z,1.53
2019-03-09T11:05:19.768Z,1.80
2019-03-09T11:07:49.581Z,2.10
2019-03-09T11:10:20.450Z,2.27
2019-03-09T11:12:50.942Z,2.13
2019-03-09T11:15:21.218Z,2.03
2019-03-09T11:17:51.600Z,1.93
2019-03-09T11:20:22.030Z,1.97
2019-03-09T11:22:51.923Z,1.77
2019-03-09T11:25:21.822Z,1.33
2019-03-09T11:27:52.505Z,1.37
2019-03-09T11:30:25.650Z,1.73
2019-03-09T11:32:55.543Z,1.80
2019-03-09T11:35:27.524Z,1.20
2019-03-09T11:37:57.415Z,2.10
2019-03-09T11:40:27.215Z,1.97
2019-03-09T11:42:57.787Z,1.77
2019-03-09T11:45:30.333Z,1.77
2019-03-09T11:48:00.009Z,1.60
2019-03-09T11:50:30.455Z,1.87
2019-03-09T11:53:00.861Z,1.47
2019-03-09T11:55:31.330Z,1.63
2019-03-09T11:58:01.209Z,1.70
2019-03-09T12:00:33.515Z,1.53
2019-03-09T12:03:03.426Z,1.80
2019-03-09T12:05:33.870Z,2.07
2019-03-09T12:08:03.601Z,1.40
2019-03-09T12:10:33.267Z,1.40
2019-03-09T12:13:03.305Z,1.83
2019-03-09T12:15:33.331Z,1.37
2019-03-09T12:18:04.153Z,1.80
2019-03-09T12:20:34.101Z,1.60
2019-03-09T12:23:22.827Z,1.93
2019-03-09T12:25:52.895Z,1.83
2019-03-09T12:28:25.084Z,1.53
2019-03-09T12:30:55.372Z,1.80
2019-03-09T12:33:26.717Z,2.03
2019-03-09T12:35:57.119Z,1.87
2019-03-09T12:38:30.618Z,1.33
2019-03-09T12:41:00.549Z,2.20
2019-03-09T12:43:30.328Z,1.83
2019-03-09T12:46:00.255Z,1.60
2019-03-09T12:48:30.658Z,2.00
2019-03-09T12:51:00.573Z,1.90
2019-03-09T12:53:30.522Z,1.40
2019-03-09T12:56:00.339Z,1.93
2019-03-09T12:58:30.727Z,2.00
2019-03-09T13:01:01.157Z,1.70
2019-03-09T13:03:31.441Z,1.90
2019-03-09T13:06:01.753Z,2.07
2019-03-09T13:08:32.565Z,1.27
2019-03-09T13:11:02.790Z,1.37
2019-03-09T13:13:33.289Z,2.50
2019-03-09T13:16:03.753Z,2.00
2019-03-09T13:18:34.005Z,2.00
2019-03-09T13:21:03.816Z,2.07
2019-03-09T13:23:34.165Z,2.00
2019-03-09T13:26:05.261Z,1.90
2019-03-09T13:28:35.677Z,1.40
2019-03-09T13:31:05.477Z,2.37
2019-03-09T13:33:35.905Z,2.20
2019-03-09T13:36:06.133Z,1.80
2019-03-09T13:38:36.189Z,2.17
2019-03-09T13:41:05.894Z,2.67
2019-03-09T13:43:35.685Z,2.37
2019-03-09T13:46:05.941Z,2.30
2019-03-09T13:48:35.890Z,2.57
2019-03-09T13:51:06.325Z,2.43
2019-03-09T13:53:35.938Z,2.00
2019-03-09T13:56:05.713Z,2.37
2019-03-09T13:58:36.607Z,2.30
2019-03-09T14:01:06.708Z,2.60
2019-03-09T14:03:37.213Z,2.67
2019-03-09T14:06:07.057Z,2.30
2019-03-09T14:08:37.495Z,2.70
2019-03-09T14:11:07.101Z,2.43
2019-03-09T14:13:36.738Z,2.80
2019-03-09T14:16:06.592Z,3.30
2019-03-09T14:18:36.585Z,2.53
2019-03-09T14:21:07.132Z,2.10
2019-03-09T14:23:37.133Z,2.57
2019-03-09T14:26:09.525Z,2.50
2019-03-09T14:28:39.206Z,2.30
2019-03-09T14:31:10.077Z,2.83
2019-03-09T14:33:39.810Z,2.50
2019-03-09T14:36:10.485Z,2.40
2019-03-09T14:38:41.474Z,3.10
2019-03-09T14:41:10.833Z,3.00
2019-03-09T14:43:41.321Z,3.37
2019-03-09T14:46:11.800Z,2.90
2019-03-09T14:48:43.109Z,2.50
2019-03-09T14:51:15.157Z,2.57
2019-03-09T14:53:45.848Z,2.80
2019-03-09T14:56:16.833Z,3.43
2019-03-09T14:58:47.297Z,2.97
2019-03-09T15:01:17.241Z,2.50
2019-03-09T15:03:47.717Z,2.97
2019-03-09T15:06:17.693Z,3.10
2019-03-09T15:08:48.772Z,3.37
2019-03-09T15:11:19.736Z,3.37
2019-03-09T15:13:52.393Z,3.90
2019-03-09T15:16:22.509Z,3.57
2019-03-09T15:18:53.017Z,3.20
2019-03-09T15:21:23.829Z,3.30
2019-03-09T15:23:53.767Z,2.77
2019-03-09T15:26:23.390Z,3.17
2019-03-09T15:28:53.382Z,3.53
2019-03-09T15:31:23.321Z,4.13
2019-03-09T15:33:53.832Z,3.37
2019-03-09T15:36:25.567Z,3.77
2019-03-09T15:38:59.265Z,2.93
2019-03-09T15:41:30.655Z,3.97
2019-03-09T15:44:01.877Z,3.10
2019-03-09T15:46:31.773Z,3.93
2019-03-09T15:49:02.176Z,3.40
2019-03-09T15:51:34.238Z,4.10
2019-03-09T15:54:04.249Z,3.40
2019-03-09T15:56:34.173Z,3.70
2019-03-09T15:59:05.531Z,3.67
2019-03-09T16:01:35.153Z,3.70
2019-03-09T16:04:06.682Z,4.50
2019-03-09T16:06:36.585Z,4.97
2019-03-09T16:09:07.477Z,5.97
2019-03-09T16:11:44.604Z,6.50
2019-03-09T16:14:08.578Z,6.40
2019-03-09T16:16:38.901Z,6.27
2019-03-09T16:19:08.521Z,6.13
2019-03-09T16:21:38.371Z,6.30
2019-03-09T16:24:08.894Z,7.10
2019-03-09T16:26:39.804Z,7.47
2019-03-09T16:29:10.201Z,7.60
2019-03-09T16:31:41.081Z,7.60
2019-03-09T16:34:10.737Z,7.77
2019-03-09T16:36:41.529Z,7.67
2019-03-09T16:39:13.510Z,8.33
2019-03-09T16:41:43.990Z,9.17
2019-03-09T16:44:17.105Z,8.63
2019-03-09T16:46:48.250Z,8.17
2019-03-09T16:49:18.841Z,8.87
2019-03-09T16:51:48.754Z,9.00
2019-03-09T16:54:18.416Z,8.23
2019-03-09T16:56:49.170Z,8.87
2019-03-09T16:59:20.121Z,8.47
2019-03-09T17:01:50.485Z,7.97
2019-03-09T17:04:20.532Z,7.07
2019-03-09T17:06:51.141Z,8.07
2019-03-09T17:09:21.046Z,6.37
2019-03-09T17:11:50.565Z,6.63
2019-03-09T17:14:21.019Z,7.37
2019-03-09T17:16:50.949Z,6.50
2019-03-09T17:19:20.624Z,6.37
2019-03-09T17:21:51.706Z,6.20
2019-03-09T17:24:23.193Z,6.33
2019-03-09T17:26:52.937Z,8.43
2019-03-09T17:29:23.640Z,8.33
2019-03-09T17:31:56.677Z,7.67
2019-03-09T17:34:26.473Z,8.40
2019-03-09T17:36:56.411Z,7.70
2019-03-09T17:39:26.112Z,7.13
2019-03-09T17:41:56.074Z,6.50
2019-03-09T17:44:26.191Z,7.00
2019-03-09T17:46:59.137Z,7.20
2019-03-09T17:49:29.358Z,7.57
2019-03-09T17:51:59.274Z,6.83
2019-03-09T17:54:29.097Z,6.57
2019-03-09T17:56:58.923Z,6.37
2019-03-09T17:59:29.280Z,6.47
2019-03-09T18:02:00.217Z,5.17
2019-03-09T18:04:29.787Z,5.83
2019-03-09T18:06:59.658Z,5.17
2019-03-09T18:09:29.233Z,5.53
2019-03-09T18:12:00.154Z,5.07
2019-03-09T18:14:30.545Z,4.97
2019-03-09T18:17:01.111Z,5.63
2019-03-09T18:19:30.777Z,5.87
2019-03-09T18:22:00.517Z,6.43
2019-03-09T18:24:30.173Z,6.13
2019-03-09T18:27:00.683Z,5.60
2019-03-09T18:29:31.181Z,6.10
2019-03-09T18:32:00.957Z,6.03
2019-03-09T18:34:31.609Z,7.93
2019-03-09T18:37:03.627Z,6.67
2019-03-09T18:39:34.053Z,6.97
2019-03-09T18:42:05.665Z,11.07
2019-03-09T18:44:35.554Z,8.70
2019-03-09T18:47:05.335Z,6.03
2019-03-09T18:49:35.329Z,6.70
2019-03-09T18:52:05.967Z,6.93
2019-03-09T18:54:36.405Z,7.97
2019-03-09T18:57:13.291Z,10.33
2019-03-09T18:59:46.930Z,9.80
2019-03-09T19:02:17.571Z,14.90
2019-03-09T19:04:52.068Z,13.90
2019-03-09T19:07:21.782Z,11.80
2019-03-09T19:09:52.062Z,9.77
2019-03-09T19:12:22.377Z,7.23
2019-03-09T19:14:52.295Z,7.47
2019-03-09T19:17:21.937Z,8.07
2019-03-09T19:19:51.860Z,7.97
2019-03-09T19:22:22.861Z,7.73
2019-03-09T19:24:53.138Z,8.43
2019-03-09T19:27:23.042Z,6.50
2019-03-09T19:29:55.443Z,6.43
2019-03-09T19:32:25.562Z,5.83
2019-03-09T19:34:55.490Z,5.77
2019-03-09T19:37:25.350Z,5.37
2019-03-09T19:39:55.588Z,4.70
2019-03-09T19:42:25.834Z,4.70
2019-03-09T19:44:57.444Z,4.70
2019-03-09T19:47:27.202Z,5.13
2019-03-09T19:49:59.161Z,5.50
2019-03-09T19:52:32.009Z,6.33
2019-03-09T19:55:02.374Z,5.80
2019-03-09T19:57:33.997Z,6.60
2019-03-09T20:00:04.468Z,6.83
2019-03-09T20:02:35.610Z,7.17
2019-03-09T20:05:07.320Z,6.53
2019-03-09T20:07:37.323Z,6.80
2019-03-09T20:10:18.361Z,6.93
2019-03-09T20:12:47.731Z,6.40
2019-03-09T20:15:19.251Z,6.97
2019-03-09T20:17:49.400Z,6.37
2019-03-09T20:20:19.482Z,7.50
2019-03-09T20:22:49.978Z,7.33
2019-03-09T20:25:19.690Z,7.67
2019-03-09T20:27:49.897Z,7.53
2019-03-09T20:30:20.146Z,7.27
2019-03-09T20:32:50.585Z,6.90
2019-03-09T20:35:20.989Z,7.67
2019-03-09T20:37:50.905Z,6.50
2019-03-09T20:40:20.645Z,7.40
2019-03-09T20:42:51.071Z,6.70
2019-03-09T20:45:20.764Z,6.40
2019-03-09T20:47:50.537Z,6.23
2019-03-09T20:50:21.022Z,5.73
2019-03-09T20:52:51.036Z,6.43
2019-03-09T20:55:21.052Z,6.80
2019-03-09T20:57:51.580Z,5.73
2019-03-09T21:00:22.166Z,5.13
2019-03-09T21:02:52.596Z,4.83
2019-03-09T21:05:23.276Z,4.30
2019-03-09T21:07:53.642Z,4.17
2019-03-09T21:10:26.637Z,4.20
2019-03-09T21:13:00.742Z,4.27
2019-03-09T21:15:31.334Z,3.50
2019-03-09T21:18:01.225Z,3.93
2019-03-09T21:20:30.999Z,3.07
2019-03-09T21:23:00.922Z,3.00
2019-03-09T21:25:30.869Z,3.07
2019-03-09T21:28:00.436Z,3.10
2019-03-09T21:30:30.042Z,2.90
2019-03-09T21:32:59.429Z,2.47
2019-03-09T21:35:28.705Z,2.20
2019-03-09T21:37:58.370Z,2.23
2019-03-09T21:40:29.305Z,2.60
2019-03-09T21:42:59.046Z,1.90
2019-03-09T21:45:29.434Z,1.63
2019-03-09T21:47:58.739Z,1.60
2019-03-09T21:50:28.613Z,1.50
2019-03-09T21:52:58.392Z,1.20
2019-03-09T21:55:28.322Z,1.20
2019-03-09T21:57:58.094Z,1.30
2019-03-09T22:00:27.926Z,1.40
2019-03-09T22:02:57.753Z,1.00
2019-03-09T22:05:26.934Z,0.70
2019-03-09T22:07:57.277Z,0.87
2019-03-09T22:10:27.738Z,0.90
2019-03-09T22:12:57.925Z,1.00
2019-03-09T22:15:27.910Z,0.80
2019-03-09T22:17:57.505Z,0.87
2019-03-09T22:20:26.782Z,0.70
2019-03-09T22:22:56.437Z,0.80
2019-03-09T22:25:26.134Z,0.80
2019-03-09T22:27:56.900Z,0.63
2019-03-09T22:30:26.557Z,0.80
2019-03-09T22:32:56.400Z,0.93
2019-03-09T22:35:26.965Z,0.60
2019-03-09T22:37:57.464Z,0.70
2019-03-09T22:40:28.016Z,0.70
2019-03-09T22:42:58.650Z,0.87
2019-03-09T22:45:29.287Z,0.60
2019-03-09T22:48:01.497Z,0.60
2019-03-09T22:50:31.973Z,0.70
2019-03-09T22:53:02.463Z,0.57
2019-03-09T22:55:32.663Z,0.73
2019-03-09T22:58:03.828Z,0.73
2019-03-09T23:00:34.743Z,0.60
2019-03-09T23:03:05.674Z,0.70
2019-03-09T23:05:35.465Z,0.50
2019-03-09T23:08:10.522Z,0.60
2019-03-09T23:10:40.877Z,0.57
2019-03-09T23:13:10.823Z,0.43
2019-03-09T23:15:40.551Z,0.50
2019-03-09T23:18:10.987Z,0.53
2019-03-09T23:20:41.064Z,0.50
2019-03-09T23:23:11.537Z,0.50
2019-03-09T23:25:43.402Z,0.67
2019-03-09T23:28:13.408Z,0.60
2019-03-09T23:30:43.796Z,0.50
2019-03-09T23:33:14.117Z,0.67
2019-03-09T23:35:44.661Z,0.60
2019-03-09T23:38:14.482Z,0.70
2019-03-09T23:40:44.336Z,0.70
2019-03-09T23:43:14.249Z,0.83
2019-03-09T23:45:44.065Z,0.63
2019-03-09T23:48:13.977Z,0.80
2019-03-09T23:50:44.545Z,0.60
2019-03-09T23:53:14.430Z,0.60
2019-03-09T23:55:44.550Z,0.50
2019-03-09T23:58:14.376Z,0.90
